Terminal Aerodrome Forecast
Issued by NWS

Home | Current Version | Previous Version | Text Only | Print | Product List | Glossary On
Versions: 1 2 3 4 5 6 7 8 9 10 11 12 13 14 15 16 17 18 19 20 21 22 23 24 25 26 27 28 29 30 31 32 33 34 35 36 37
000
FTUS46 KEKA 231100 RRA
TAFACV
TAF
KACV 231147Z 2312/2412 13005KT P6SM VCSH SCT025 BKN035 OVC050
     FM231800 20006KT P6SM VCSH SCT030 BKN040 OVC050
     FM232100 19006KT 6SM -RA BR SCT025 BKN040 OVC050
     FM240700 16008G15KT 4SM BR BKN025 OVC040=

USA.gov is the U.S. government's official web portal to all federal, state and local government web resources and services.